Time;durP1;ratioP1;P1;durP2;ratioP2;P2;SDS_P1;SDS_P2;PMS_P1;PMS_P2;Temp;Humidity;BMP_temperature;BMP_pressure;BME280_temperature;BME280_humidity;BME280_pressure;Samples;Min_cycle;Max_cycle;Signal;HPM_P1;HPM_P2
2021/11/08 00:01:30;;;;;;;5.13;2.30;;;6.40;97.30;;;;;;5014684;28;20440;-84
2021/11/08 00:03:56;;;;;;;6.23;2.30;;;6.40;97.30;;;;;;5015008;28;20187;-84
2021/11/08 00:06:22;;;;;;;3.67;2.40;;;6.40;97.30;;;;;;5031236;28;20869;-84
2021/11/08 00:08:47;;;;;;;12.50;2.53;;;6.40;97.30;;;;;;5015252;28;20187;-84
2021/11/08 00:11:13;;;;;;;9.10;2.70;;;6.40;97.30;;;;;;5016995;28;20205;-85
2021/11/08 00:13:39;;;;;;;7.23;2.47;;;6.40;97.30;;;;;;5017326;28;20208;-84
2021/11/08 00:16:13;;;;;;;12.33;4.63;;;6.40;97.30;;;;;;5031135;28;20412;-84
2021/11/08 00:19:42;;;;;;;11.00;2.93;;;6.40;97.30;;;;;;5014850;28;20169;-84
2021/11/08 00:21:32;;;;;;;9.77;2.90;;;6.50;97.30;;;;;;5014775;28;20424;-84
2021/11/08 00:23:58;;;;;;;10.20;2.73;;;6.50;97.30;;;;;;5014244;28;20417;-85
2021/11/08 00:26:23;;;;;;;6.43;2.67;;;6.60;97.30;;;;;;5014737;28;20419;-85
2021/11/08 00:28:49;;;;;;;9.53;2.80;;;6.60;97.30;;;;;;5014413;28;20416;-85
2021/11/08 00:31:15;;;;;;;5.10;2.60;;;6.60;97.30;;;;;;5015632;28;20295;-85
2021/11/08 00:33:41;;;;;;;7.93;2.70;;;6.60;97.30;;;;;;5014704;28;20203;-84
2021/11/08 00:36:07;;;;;;;10.97;2.77;;;6.60;97.30;;;;;;5014804;28;20268;-85
2021/11/08 00:38:33;;;;;;;4.50;2.73;;;6.60;97.30;;;;;;5015055;28;20180;-84
2021/11/08 00:40:59;;;;;;;6.53;2.03;;;6.60;97.30;;;;;;5017256;28;20447;-82
2021/11/08 00:43:25;;;;;;;14.10;2.80;;;6.60;97.30;;;;;;5014175;28;20494;-84
2021/11/08 00:45:51;;;;;;;5.80;2.63;;;6.60;97.30;;;;;;5015807;28;20174;-84
2021/11/08 00:48:20;;;;;;;6.53;2.77;;;6.60;97.30;;;;;;5014273;28;20428;-84
2021/11/08 00:50:48;;;;;;;8.27;2.80;;;6.60;97.30;;;;;;5015243;28;20271;-84
2021/11/08 00:53:14;;;;;;;6.00;2.33;;;6.60;97.30;;;;;;5016611;28;20443;-84
2021/11/08 00:55:41;;;;;;;5.87;2.17;;;6.60;97.30;;;;;;5014799;28;20412;-84
2021/11/08 00:58:13;;;;;;;6.87;2.53;;;6.70;97.30;;;;;;5014713;28;20652;-84
2021/11/08 01:00:39;;;;;;;7.83;2.93;;;6.70;97.30;;;;;;5014595;28;20427;-84
2021/11/08 01:03:06;;;;;;;12.20;2.50;;;6.70;97.30;;;;;;5029521;28;20436;-84
2021/11/08 01:05:32;;;;;;;11.30;2.60;;;6.70;97.30;;;;;;5013865;28;20424;-84
2021/11/08 01:07:58;;;;;;;11.60;3.23;;;6.80;97.30;;;;;;5012745;28;20941;-84
2021/11/08 01:10:24;;;;;;;6.20;2.57;;;6.80;97.30;;;;;;5015606;28;20600;-85
2021/11/08 01:12:51;;;;;;;18.53;3.60;;;6.90;97.30;;;;;;5014792;28;20470;-85
2021/11/08 01:15:17;;;;;;;8.07;2.60;;;6.90;97.30;;;;;;5014145;28;20648;-84
2021/11/08 01:17:43;;;;;;;14.10;2.90;;;6.90;97.30;;;;;;5014057;28;20412;-80
2021/11/08 01:20:10;;;;;;;8.57;2.50;;;7.00;97.30;;;;;;5014277;28;20191;-83
2021/11/08 01:22:36;;;;;;;10.43;3.93;;;7.00;97.30;;;;;;5013198;28;20444;-84
2021/11/08 01:25:04;;;;;;;24.33;3.57;;;7.00;97.30;;;;;;5012815;28;20450;-84
2021/11/08 01:27:37;;;;;;;8.43;2.80;;;7.00;97.30;;;;;;5013202;28;20408;-84
2021/11/08 01:30:08;;;;;;;9.30;2.90;;;7.00;97.30;;;;;;5013185;28;20455;-83
2021/11/08 01:32:34;;;;;;;8.63;2.30;;;7.00;97.30;;;;;;5014141;28;20472;-85
2021/11/08 01:34:59;;;;;;;8.93;2.27;;;7.00;97.30;;;;;;5014641;28;20427;-84
2021/11/08 01:37:25;;;;;;;8.10;2.33;;;7.00;97.30;;;;;;5014006;28;20260;-84
2021/11/08 01:39:51;;;;;;;12.23;2.27;;;7.00;97.30;;;;;;5013762;28;20655;-84
2021/11/08 01:42:17;;;;;;;7.10;2.60;;;7.00;97.30;;;;;;5013433;28;20436;-84
2021/11/08 01:44:43;;;;;;;6.57;2.17;;;7.00;97.30;;;;;;5013121;28;20424;-84
2021/11/08 01:47:09;;;;;;;11.50;2.70;;;7.00;97.30;;;;;;5015426;28;20188;-84
2021/11/08 01:49:36;;;;;;;6.80;2.50;;;7.00;97.30;;;;;;5014202;28;20177;-84
2021/11/08 01:52:04;;;;;;;10.20;3.00;;;7.10;97.30;;;;;;5015921;28;20440;-84
2021/11/08 01:54:30;;;;;;;9.90;2.90;;;7.10;97.30;;;;;;5016325;28;20400;-84
2021/11/08 01:56:57;;;;;;;7.60;2.90;;;7.10;97.30;;;;;;5015317;28;20504;-84
2021/11/08 01:59:23;;;;;;;14.97;3.40;;;7.10;97.30;;;;;;5014532;28;20240;-85
2021/11/08 02:01:54;;;;;;;6.00;2.30;;;7.10;97.30;;;;;;5012769;28;20471;-84
2021/11/08 02:04:20;;;;;;;12.47;2.63;;;7.10;97.30;;;;;;5012364;28;20420;-84
2021/11/08 02:06:47;;;;;;;17.80;3.10;;;7.10;97.30;;;;;;5012692;28;20779;-84
2021/11/08 02:09:13;;;;;;;6.20;2.67;;;7.10;97.30;;;;;;5015298;28;20424;-84
2021/11/08 02:11:40;;;;;;;11.53;2.97;;;7.00;97.30;;;;;;5013909;28;20541;-84
2021/11/08 02:14:06;;;;;;;9.03;2.53;;;7.00;97.30;;;;;;5014145;28;20442;-84
2021/11/08 02:16:34;;;;;;;11.40;2.80;;;7.00;97.30;;;;;;5013403;28;20424;-84
2021/11/08 02:19:02;;;;;;;9.77;2.70;;;7.00;97.30;;;;;;5013345;28;20421;-84
2021/11/08 02:21:28;;;;;;;11.20;2.90;;;6.90;97.30;;;;;;5013942;28;20415;-85
2021/11/08 02:23:54;;;;;;;16.13;2.80;;;7.00;97.30;;;;;;5012897;28;20415;-85
2021/11/08 02:26:20;;;;;;;5.00;2.93;;;7.00;97.30;;;;;;5011945;28;20418;-84
2021/11/08 02:28:48;;;;;;;4.57;2.43;;;7.00;97.30;;;;;;5013091;28;20420;-84
2021/11/08 02:31:17;;;;;;;12.70;4.93;;;7.10;97.30;;;;;;5014697;28;20193;-82
2021/11/08 02:33:43;;;;;;;7.70;2.77;;;7.10;97.30;;;;;;5013565;28;20435;-84
2021/11/08 02:36:09;;;;;;;4.43;2.30;;;7.10;97.30;;;;;;5013775;28;20412;-86
2021/11/08 02:38:39;;;;;;;4.70;2.53;;;7.10;97.30;;;;;;5013383;28;20466;-84
2021/11/08 02:41:05;;;;;;;12.40;2.73;;;7.10;97.30;;;;;;5013315;28;20723;-84
2021/11/08 02:43:31;;;;;;;8.70;3.33;;;7.20;97.30;;;;;;5014408;28;20475;-84
2021/11/08 02:46:07;;;;;;;12.80;2.87;;;7.20;97.30;;;;;;5012495;28;20251;-84
2021/11/08 02:48:35;;;;;;;6.20;3.10;;;7.20;97.30;;;;;;5011958;28;20800;-85
2021/11/08 02:51:23;;;;;;;14.77;3.37;;;7.20;97.30;;;;;;5013216;28;20455;-84
2021/11/08 02:53:55;;;;;;;6.23;2.50;;;7.20;97.30;;;;;;5013543;28;20448;-84
2021/11/08 02:56:21;;;;;;;12.40;2.70;;;7.10;97.30;;;;;;5012494;28;20427;-84
2021/11/08 02:58:47;;;;;;;12.27;2.57;;;7.10;97.30;;;;;;5013305;28;20420;-84
2021/11/08 03:01:21;;;;;;;8.07;2.97;;;7.10;97.30;;;;;;5013348;28;20275;-84
2021/11/08 03:03:57;;;;;;;9.23;3.10;;;7.10;97.30;;;;;;5011968;28;20471;-84
2021/11/08 03:08:51;;;;;;;9.97;2.50;;;7.10;97.30;;;;;;5013337;28;21134;-84
2021/11/08 03:11:17;;;;;;;9.23;2.80;;;7.10;97.30;;;;;;5012836;28;20455;-84
2021/11/08 03:13:53;;;;;;;8.57;2.90;;;7.00;97.30;;;;;;5012927;28;20428;-84
2021/11/08 03:21:49;;;;;;;11.10;4.23;;;7.00;97.30;;;;;;5013083;28;20533;-84
2021/11/08 03:24:20;;;;;;;12.13;2.90;;;7.00;97.30;;;;;;5013093;28;20412;-84
2021/11/08 03:26:49;;;;;;;8.30;3.07;;;7.00;97.30;;;;;;5011591;28;20416;-84
2021/11/08 03:29:16;;;;;;;6.33;3.43;;;7.00;97.30;;;;;;5011670;28;20505;-84
2021/11/08 03:31:47;;;;;;;6.30;3.30;;;7.00;97.30;;;;;;5011790;28;20483;-83
2021/11/08 03:34:13;;;;;;;12.00;3.70;;;7.00;97.30;;;;;;5013102;28;20440;-83
2021/11/08 03:36:38;;;;;;;9.97;3.10;;;7.00;97.30;;;;;;5017993;28;20419;-83
2021/11/08 03:39:06;;;;;;;13.30;3.33;;;7.00;97.30;;;;;;5016378;28;20416;-83
2021/11/08 03:41:32;;;;;;;14.70;3.30;;;7.00;97.30;;;;;;5016930;28;20205;-84
2021/11/08 03:43:58;;;;;;;6.67;3.17;;;7.00;97.30;;;;;;5016692;28;20796;-83
2021/11/08 03:46:24;;;;;;;13.20;3.40;;;6.90;97.30;;;;;;5032350;28;20419;-84
2021/11/08 03:48:50;;;;;;;15.77;3.43;;;6.90;97.30;;;;;;5016141;28;20423;-84
2021/11/08 03:51:15;;;;;;;10.63;5.20;;;6.90;97.30;;;;;;5015781;28;20211;-84
2021/11/08 03:53:41;;;;;;;11.60;3.53;;;6.90;97.30;;;;;;5033367;28;20201;-83
2021/11/08 03:56:07;;;;;;;10.97;3.23;;;6.90;97.30;;;;;;5018733;28;20177;-84
2021/11/08 03:58:33;;;;;;;14.33;2.80;;;6.90;97.30;;;;;;5016924;28;20263;-84
2021/11/08 04:00:59;;;;;;;15.23;3.70;;;6.90;97.30;;;;;;5016585;28;20423;-84
2021/11/08 04:03:25;;;;;;;7.80;3.20;;;6.90;97.30;;;;;;5016230;28;20448;-84
2021/11/08 04:05:51;;;;;;;12.27;4.00;;;6.90;97.30;;;;;;5015873;28;20945;-83
2021/11/08 04:08:20;;;;;;;7.80;2.70;;;6.90;97.30;;;;;;5015800;28;20420;-83
2021/11/08 04:10:51;;;;;;;10.43;3.17;;;6.90;97.30;;;;;;5015460;28;20220;-83
2021/11/08 04:13:17;;;;;;;11.23;3.67;;;6.80;97.30;;;;;;5015694;28;20827;-84
2021/11/08 04:15:45;;;;;;;18.53;2.97;;;6.80;97.30;;;;;;5016693;28;20424;-84
2021/11/08 04:18:21;;;;;;;11.30;3.20;;;6.80;97.30;;;;;;5016891;28;20423;-84
2021/11/08 04:20:49;;;;;;;14.30;3.00;;;6.80;97.30;;;;;;5016203;28;20452;-83
2021/11/08 04:23:16;;;;;;;12.93;2.93;;;6.80;97.30;;;;;;5015578;28;20501;-84
2021/11/08 04:25:42;;;;;;;8.00;4.30;;;6.80;97.30;;;;;;5015077;28;20422;-84
2021/11/08 04:28:08;;;;;;;18.63;3.63;;;6.70;97.30;;;;;;5031846;28;20499;-84
2021/11/08 04:30:38;;;;;;;17.63;3.70;;;6.80;97.30;;;;;;5014504;28;20895;-84
2021/11/08 04:33:17;;;;;;;16.70;3.67;;;6.70;97.30;;;;;;5014728;28;20500;-84
2021/11/08 04:36:03;;;;;;;13.63;3.20;;;6.80;97.30;;;;;;5033121;28;20439;-84
2021/11/08 04:38:39;;;;;;;7.33;3.73;;;6.70;97.30;;;;;;5030990;28;21015;-84
2021/11/08 04:51:42;;;;;;;13.50;3.73;;;6.80;97.30;;;;;;5015978;28;21036;-84
2021/11/08 05:21:05;;;;;;;8.20;3.50;;;6.90;97.30;;;;;;5016409;28;20443;-85
2021/11/08 05:31:48;;;;;;;12.73;3.13;;;7.00;97.30;;;;;;5013916;28;20475;-84
2021/11/08 05:34:15;;;;;;;11.37;3.10;;;7.00;97.30;;;;;;5012763;28;20415;-83
2021/11/08 05:36:41;;;;;;;15.13;3.47;;;7.00;97.30;;;;;;5016506;28;20829;-84
2021/11/08 05:39:08;;;;;;;8.27;3.10;;;7.00;97.30;;;;;;5015106;28;20416;-84
2021/11/08 05:41:35;;;;;;;10.47;3.87;;;7.00;97.30;;;;;;5013510;28;20444;-85
2021/11/08 05:44:03;;;;;;;10.33;3.13;;;7.00;97.30;;;;;;5013409;28;20477;-84
2021/11/08 05:46:29;;;;;;;8.73;3.47;;;7.00;97.30;;;;;;5012926;28;20412;-84
2021/11/08 05:48:55;;;;;;;21.73;3.57;;;7.00;97.30;;;;;;5013522;28;20834;-84
2021/11/08 05:51:21;;;;;;;9.83;4.13;;;7.00;97.30;;;;;;5012838;28;20468;-85
2021/11/08 05:53:50;;;;;;;10.83;5.40;;;7.00;97.30;;;;;;5012903;28;20177;-84
2021/11/08 05:59:01;;;;;;;9.47;3.60;;;7.00;97.30;;;;;;5014414;28;20941;-84
2021/11/08 06:50:41;;;;;;;19.77;4.80;;;6.50;97.30;;;;;;5014245;28;20474;-84
2021/11/08 06:53:11;;;;;;;26.17;5.90;;;6.50;97.30;;;;;;5012741;28;20432;-83
2021/11/08 06:55:37;;;;;;;14.13;5.20;;;6.50;97.30;;;;;;5013585;28;20628;-84
2021/11/08 06:58:06;;;;;;;19.43;5.00;;;6.50;97.30;;;;;;5015297;28;20411;-84
2021/11/08 07:00:32;;;;;;;13.00;4.30;;;6.50;97.30;;;;;;5015564;28;20466;-84
2021/11/08 07:02:58;;;;;;;12.33;3.60;;;6.50;97.30;;;;;;5013866;28;20535;-82
2021/11/08 07:05:24;;;;;;;14.40;4.47;;;6.50;97.30;;;;;;5015224;28;20436;-84
2021/11/08 07:07:49;;;;;;;10.63;3.43;;;6.50;97.30;;;;;;5013826;28;20174;-82
2021/11/08 07:10:20;;;;;;;23.87;6.33;;;6.50;97.30;;;;;;5013012;28;20203;-84
2021/11/08 07:12:46;;;;;;;18.37;3.87;;;6.60;97.30;;;;;;5012521;28;20225;-84
2021/11/08 07:15:12;;;;;;;9.57;4.23;;;6.70;97.30;;;;;;5012885;28;20427;-83
2021/11/08 07:17:37;;;;;;;14.13;4.30;;;6.70;97.30;;;;;;5013055;28;20421;-85
2021/11/08 07:20:05;;;;;;;18.10;7.40;;;6.80;97.30;;;;;;5014955;28;20572;-84
2021/11/08 07:22:31;;;;;;;16.70;5.23;;;6.90;97.30;;;;;;5013713;28;20212;-84
2021/11/08 07:24:56;;;;;;;13.23;5.57;;;7.00;97.30;;;;;;5012822;28;20424;-84
2021/11/08 07:27:22;;;;;;;12.73;4.50;;;7.10;97.30;;;;;;5012972;28;20497;-84
2021/11/08 07:29:47;;;;;;;6.97;4.60;;;7.10;97.30;;;;;;5015134;28;20173;-85
2021/11/08 07:32:13;;;;;;;16.70;5.10;;;7.10;97.30;;;;;;5011570;28;20490;-84
2021/11/08 07:34:38;;;;;;;15.03;5.20;;;7.10;97.30;;;;;;5012994;28;20174;-85
2021/11/08 07:37:06;;;;;;;10.53;4.53;;;7.10;97.30;;;;;;5012027;28;20256;-85
2021/11/08 07:39:32;;;;;;;17.30;4.00;;;7.10;97.30;;;;;;5029831;28;20174;-84
2021/11/08 07:41:57;;;;;;;15.10;4.80;;;7.10;97.30;;;;;;5023052;28;20455;-84
2021/11/08 07:44:23;;;;;;;18.17;4.67;;;7.20;97.30;;;;;;5012568;28;20271;-84
2021/11/08 07:46:49;;;;;;;11.10;4.20;;;7.30;97.30;;;;;;5028849;28;20177;-84
2021/11/08 07:49:14;;;;;;;13.10;3.53;;;7.30;97.30;;;;;;5013597;28;20220;-84
2021/11/08 07:51:40;;;;;;;12.53;4.97;;;7.30;97.30;;;;;;5011745;28;20474;-84
2021/11/08 07:54:06;;;;;;;17.80;4.60;;;7.30;97.30;;;;;;5010908;28;20169;-84
2021/11/08 07:56:31;;;;;;;7.43;3.90;;;7.40;97.30;;;;;;5012119;28;20181;-85
2021/11/08 07:58:57;;;;;;;10.93;4.30;;;7.50;97.30;;;;;;5011901;28;20490;-85
2021/11/08 08:01:22;;;;;;;20.83;5.17;;;7.60;97.30;;;;;;5012914;28;20400;-84
2021/11/08 08:03:48;;;;;;;9.37;4.20;;;7.80;97.30;;;;;;5012951;28;20232;-84
2021/11/08 08:06:15;;;;;;;17.10;5.00;;;7.80;97.30;;;;;;5012957;28;20506;-84
2021/11/08 08:08:45;;;;;;;14.73;3.87;;;7.80;97.30;;;;;;5012464;28;20196;-84
2021/11/08 08:11:10;;;;;;;10.73;5.20;;;7.90;97.30;;;;;;5012929;28;20558;-85
2021/11/08 08:13:37;;;;;;;23.87;5.20;;;7.90;97.30;;;;;;5028183;28;20491;-85
2021/11/08 08:16:06;;;;;;;13.73;3.97;;;7.90;97.30;;;;;;5011430;28;20193;-84
2021/11/08 08:18:34;;;;;;;13.00;4.80;;;7.90;97.30;;;;;;5011580;28;20421;-84
2021/11/08 08:21:00;;;;;;;15.50;4.40;;;8.00;97.30;;;;;;5014300;28;20452;-84
2021/11/08 08:23:25;;;;;;;15.47;4.17;;;8.00;97.30;;;;;;5030863;28;20958;-83
2021/11/08 08:25:52;;;;;;;11.83;4.57;;;8.10;97.30;;;;;;5016388;28;20640;-84
2021/11/08 08:28:17;;;;;;;14.00;4.77;;;8.20;97.30;;;;;;5016119;28;20652;-85
2021/11/08 08:30:44;;;;;;;17.60;5.03;;;8.20;97.30;;;;;;5016567;28;20463;-85
2021/11/08 08:33:10;;;;;;;12.17;4.40;;;8.20;97.30;;;;;;5014965;28;20279;-85
2021/11/08 08:35:41;;;;;;;13.20;4.50;;;8.30;97.30;;;;;;5030801;28;20861;-85
2021/11/08 08:38:08;;;;;;;7.70;4.20;;;8.30;97.30;;;;;;5014958;28;20911;-84
2021/11/08 08:40:35;;;;;;;6.40;3.70;;;8.30;97.30;;;;;;5015335;28;20420;-84
2021/11/08 08:43:01;;;;;;;14.87;4.57;;;8.40;97.30;;;;;;5014914;28;20440;-84
2021/11/08 08:45:27;;;;;;;25.50;5.87;;;8.40;97.30;;;;;;5016384;28;20918;-85
2021/11/08 08:47:52;;;;;;;15.30;5.20;;;8.40;97.30;;;;;;5017244;28;20430;-85
2021/11/08 08:50:18;;;;;;;10.77;4.37;;;8.50;97.30;;;;;;5015177;28;20618;-84
2021/11/08 08:52:44;;;;;;;9.23;3.73;;;8.60;97.30;;;;;;5015512;28;20288;-85
2021/11/08 08:55:09;;;;;;;17.80;4.10;;;8.60;97.30;;;;;;5014649;28;20989;-85
2021/11/08 08:57:35;;;;;;;11.47;5.00;;;8.60;97.30;;;;;;5014500;28;20216;-85
2021/11/08 09:00:02;;;;;;;15.30;3.90;;;8.70;97.30;;;;;;5014299;28;20189;-85
2021/11/08 09:02:28;;;;;;;14.70;4.33;;;8.70;97.30;;;;;;5015160;28;20288;-84
2021/11/08 09:04:53;;;;;;;18.13;3.73;;;8.70;97.30;;;;;;5014896;28;20463;-84
2021/11/08 09:07:19;;;;;;;23.27;4.07;;;8.80;97.30;;;;;;5016010;28;20551;-84
2021/11/08 09:09:44;;;;;;;17.97;4.17;;;8.90;97.30;;;;;;5032342;28;20181;-84
2021/11/08 09:12:10;;;;;;;8.83;3.93;;;8.90;97.30;;;;;;5014884;28;20198;-84
2021/11/08 09:14:38;;;;;;;9.97;3.60;;;9.10;97.30;;;;;;5015022;28;20549;-84
2021/11/08 09:17:03;;;;;;;13.87;4.70;;;9.10;97.30;;;;;;5014483;28;20975;-84
2021/11/08 09:19:29;;;;;;;12.37;4.20;;;9.10;97.30;;;;;;5013414;28;20494;-85
2021/11/08 09:21:55;;;;;;;9.40;4.20;;;9.20;97.30;;;;;;5014820;28;20200;-84
2021/11/08 09:24:23;;;;;;;18.07;4.33;;;9.20;97.30;;;;;;5013608;28;20188;-84
2021/11/08 09:26:49;;;;;;;25.37;4.63;;;9.30;97.30;;;;;;5014966;28;20268;-84
2021/11/08 09:29:19;;;;;;;11.47;3.20;;;9.30;97.30;;;;;;5015133;28;20460;-85
2021/11/08 09:31:45;;;;;;;10.03;3.80;;;9.30;97.30;;;;;;5013508;28;20563;-84
2021/11/08 09:34:14;;;;;;;13.73;4.37;;;9.30;97.30;;;;;;5014422;28;20507;-84
2021/11/08 09:36:40;;;;;;;15.13;3.97;;;9.40;97.30;;;;;;5014925;28;20424;-84
2021/11/08 09:39:24;;;;;;;9.90;4.10;;;9.40;97.30;;;;;;5013647;28;20416;-85
2021/11/08 09:41:53;;;;;;;12.40;3.30;;;9.50;97.30;;;;;;5014838;28;20467;-85
2021/11/08 09:44:20;;;;;;;9.17;3.30;;;9.50;97.30;;;;;;5013693;28;20443;-84
2021/11/08 09:46:49;;;;;;;11.80;3.43;;;9.60;97.30;;;;;;5031077;28;20436;-84
2021/11/08 09:49:15;;;;;;;13.93;4.00;;;9.60;97.30;;;;;;5016685;28;20249;-84
2021/11/08 09:51:43;;;;;;;7.90;3.27;;;9.70;97.30;;;;;;5014797;28;20496;-84
2021/11/08 09:54:10;;;;;;;14.03;2.97;;;9.80;97.30;;;;;;5015963;28;20416;-84
2021/11/08 09:56:37;;;;;;;13.10;3.00;;;9.90;97.30;;;;;;5015723;28;20416;-83
2021/11/08 09:59:03;;;;;;;11.10;3.20;;;9.90;97.30;;;;;;5014744;28;20428;-84
2021/11/08 10:01:31;;;;;;;11.80;4.00;;;9.90;97.30;;;;;;5029546;28;20430;-84
2021/11/08 10:03:56;;;;;;;11.13;3.40;;;9.90;97.30;;;;;;5013217;28;20188;-84
2021/11/08 10:06:22;;;;;;;15.33;3.20;;;9.90;97.30;;;;;;5013165;28;20428;-84
2021/11/08 10:08:48;;;;;;;6.43;3.07;;;9.80;97.30;;;;;;5014558;28;20671;-85
2021/11/08 10:11:18;;;;;;;10.77;3.00;;;9.90;97.30;;;;;;5016485;28;20877;-84
2021/11/08 10:13:45;;;;;;;13.23;4.10;;;9.80;97.30;;;;;;5031140;28;20448;-84
2021/11/08 10:16:18;;;;;;;9.30;3.70;;;9.90;97.30;;;;;;5014198;28;20420;-84
2021/11/08 10:18:47;;;;;;;8.10;3.00;;;10.00;97.30;;;;;;5016588;28;20400;-83
2021/11/08 10:21:17;;;;;;;12.33;4.50;;;10.00;97.30;;;;;;5012988;28;20818;-84
2021/11/08 10:23:46;;;;;;;7.70;2.50;;;10.00;97.30;;;;;;5012667;28;20527;-84
2021/11/08 10:26:23;;;;;;;11.00;3.40;;;10.00;97.30;;;;;;5013047;28;20424;-84
2021/11/08 10:28:55;;;;;;;16.97;3.10;;;10.00;97.30;;;;;;5014044;28;20936;-83
2021/11/08 10:31:29;;;;;;;15.47;3.30;;;10.10;97.30;;;;;;5023533;28;20460;-84
2021/11/08 10:33:57;;;;;;;14.43;3.13;;;10.10;97.30;;;;;;5031328;28;20420;-84
2021/11/08 10:36:23;;;;;;;8.83;3.37;;;10.10;97.30;;;;;;5015497;28;21208;-84
2021/11/08 10:38:52;;;;;;;9.43;3.50;;;10.20;97.30;;;;;;5030251;28;20421;-84
2021/11/08 10:41:21;;;;;;;11.43;2.87;;;10.30;97.30;;;;;;5015397;28;20412;-84
2021/11/08 10:43:53;;;;;;;14.93;3.83;;;10.50;97.30;;;;;;5012303;28;20417;-84
2021/11/08 10:46:28;;;;;;;12.90;3.13;;;10.50;97.30;;;;;;5012582;28;20431;-85
2021/11/08 10:48:57;;;;;;;6.87;3.17;;;10.60;97.30;;;;;;5012976;28;20443;-83
2021/11/08 10:51:25;;;;;;;8.97;3.60;;;10.60;97.30;;;;;;5014518;28;20570;-84
2021/11/08 10:53:55;;;;;;;13.03;4.00;;;10.50;97.30;;;;;;5015927;28;20409;-84
2021/11/08 10:56:42;;;;;;;10.77;2.80;;;10.50;97.30;;;;;;5013744;28;20462;-83
2021/11/08 10:59:20;;;;;;;18.23;3.70;;;10.50;97.30;;;;;;5014056;28;20430;-84
2021/11/08 11:01:52;;;;;;;9.13;2.93;;;10.60;97.30;;;;;;5015530;28;20439;-81
2021/11/08 11:04:27;;;;;;;4.83;2.67;;;10.50;97.30;;;;;;5014571;28;20843;-83
2021/11/08 11:06:54;;;;;;;9.50;2.80;;;10.50;97.30;;;;;;5013335;28;20420;-84
2021/11/08 11:09:29;;;;;;;11.27;2.90;;;10.50;97.30;;;;;;5029526;28;20424;-84
2021/11/08 11:12:19;;;;;;;5.83;3.40;;;10.40;97.30;;;;;;5013725;28;20451;-84
2021/11/08 11:14:48;;;;;;;12.73;2.60;;;10.40;97.30;;;;;;5006000;28;20413;-84
2021/11/08 11:17:25;;;;;;;14.63;3.03;;;10.40;97.30;;;;;;5013710;28;21061;-85
2021/11/08 11:20:00;;;;;;;15.70;2.70;;;10.40;97.30;;;;;;5013501;28;20407;-84
2021/11/08 11:22:25;;;;;;;8.30;2.80;;;10.50;97.30;;;;;;5004432;28;20440;-84
2021/11/08 11:24:54;;;;;;;5.93;2.70;;;10.60;97.30;;;;;;5013586;28;20771;-83
2021/11/08 11:27:29;;;;;;;14.37;2.70;;;10.60;97.30;;;;;;5012956;28;20179;-83
2021/11/08 11:30:16;;;;;;;5.40;2.60;;;10.60;97.30;;;;;;5013904;28;20407;-83
2021/11/08 11:32:43;;;;;;;6.93;2.90;;;10.70;97.30;;;;;;5011336;28;20472;-84
2021/11/08 11:35:17;;;;;;;6.93;2.60;;;10.60;97.30;;;;;;5006513;28;20418;-85
2021/11/08 11:37:56;;;;;;;6.93;3.00;;;10.50;97.30;;;;;;5029927;28;20491;-84
2021/11/08 11:40:23;;;;;;;11.73;3.53;;;10.40;97.30;;;;;;5015911;28;20479;-84
2021/11/08 11:42:52;;;;;;;8.87;3.33;;;10.40;97.30;;;;;;5013937;28;20902;-84
2021/11/08 11:45:18;;;;;;;11.13;3.60;;;10.30;97.30;;;;;;5013163;28;20482;-84
2021/11/08 11:48:02;;;;;;;11.00;2.70;;;10.30;97.30;;;;;;5013566;28;20942;-84
2021/11/08 11:50:30;;;;;;;8.10;3.43;;;10.20;97.30;;;;;;5012818;28;21112;-85
2021/11/08 11:52:56;;;;;;;5.93;2.57;;;10.20;97.30;;;;;;5010851;28;20436;-84
2021/11/08 11:55:22;;;;;;;13.50;2.83;;;10.10;97.30;;;;;;5012535;28;20412;-85
2021/11/08 11:57:48;;;;;;;9.23;2.60;;;10.20;97.30;;;;;;5016029;28;20481;-84
2021/11/08 12:00:14;;;;;;;4.90;3.00;;;10.20;97.30;;;;;;5019156;28;20251;-85
2021/11/08 12:02:40;;;;;;;6.80;2.83;;;10.20;97.30;;;;;;5018699;28;20432;-83
2021/11/08 12:05:06;;;;;;;8.63;4.20;;;10.20;97.30;;;;;;5016957;28;20428;-83
2021/11/08 12:07:33;;;;;;;6.83;2.40;;;10.20;97.30;;;;;;5018881;28;20188;-84
2021/11/08 12:10:02;;;;;;;7.33;2.90;;;10.20;97.30;;;;;;5016896;28;20427;-84
2021/11/08 12:12:28;;;;;;;9.97;3.33;;;10.20;97.30;;;;;;5015159;28;20423;-84
2021/11/08 12:15:08;;;;;;;6.53;2.50;;;10.10;97.30;;;;;;5015724;28;20403;-84
2021/11/08 12:17:46;;;;;;;9.93;2.53;;;10.10;97.30;;;;;;5015350;28;20177;-82
2021/11/08 12:20:15;;;;;;;4.80;2.30;;;10.10;97.30;;;;;;5017647;28;20403;-84
2021/11/08 12:22:41;;;;;;;7.43;2.70;;;10.10;97.30;;;;;;5017739;28;20428;-84
2021/11/08 12:25:16;;;;;;;10.93;2.53;;;10.00;97.30;;;;;;5018637;28;20412;-84
2021/11/08 12:27:42;;;;;;;4.10;2.63;;;10.00;97.30;;;;;;5015857;28;20493;-85
2021/11/08 12:30:20;;;;;;;8.20;3.07;;;9.90;97.30;;;;;;5016115;28;20841;-84
2021/11/08 12:32:52;;;;;;;4.50;2.10;;;9.90;97.30;;;;;;5015336;28;20225;-81
2021/11/08 12:35:22;;;;;;;5.70;2.63;;;9.90;97.30;;;;;;5031946;28;20803;-84
2021/11/08 12:37:49;;;;;;;9.53;2.67;;;9.80;97.30;;;;;;5014925;28;20914;-83
2021/11/08 12:40:18;;;;;;;7.80;2.40;;;9.80;97.30;;;;;;5016865;28;20929;-82
2021/11/08 12:42:48;;;;;;;7.57;2.80;;;9.80;97.30;;;;;;5016546;28;20451;-84
2021/11/08 12:45:23;;;;;;;8.87;2.83;;;9.90;97.30;;;;;;5016055;28;20413;-83
2021/11/08 12:48:02;;;;;;;8.90;2.60;;;9.80;97.30;;;;;;5015211;28;20459;-84
2021/11/08 12:50:52;;;;;;;6.50;2.53;;;9.80;97.30;;;;;;5015635;28;20541;-85
2021/11/08 12:53:31;;;;;;;12.63;2.40;;;9.80;97.30;;;;;;5014531;28;20440;-84
2021/11/08 12:56:08;;;;;;;8.07;2.90;;;9.80;97.30;;;;;;5014030;28;20515;-84
2021/11/08 12:58:38;;;;;;;5.57;2.77;;;9.80;97.30;;;;;;5014239;28;20551;-84
2021/11/08 13:01:07;;;;;;;14.17;2.80;;;9.80;97.30;;;;;;5014485;28;20424;-81
2021/11/08 13:03:40;;;;;;;9.07;3.00;;;9.80;97.30;;;;;;5015660;28;20906;-84
2021/11/08 13:06:21;;;;;;;7.03;2.20;;;9.90;97.30;;;;;;5017149;28;20420;-83
2021/11/08 13:08:47;;;;;;;4.73;2.27;;;9.80;97.30;;;;;;5016433;28;20416;-83
2021/11/08 13:11:15;;;;;;;7.47;3.17;;;9.80;97.30;;;;;;5017063;28;20657;-84
2021/11/08 13:13:59;;;;;;;7.67;2.73;;;9.80;97.30;;;;;;5015346;28;20174;-85
2021/11/08 13:16:32;;;;;;;5.43;2.77;;;9.90;97.30;;;;;;5030728;28;20456;-83
2021/11/08 13:19:08;;;;;;;16.73;4.50;;;9.90;97.30;;;;;;5014494;28;20447;-83
2021/11/08 13:21:35;;;;;;;9.67;3.03;;;9.80;97.30;;;;;;5016574;28;20439;-83
2021/11/08 13:24:02;;;;;;;2.90;2.07;;;9.80;97.30;;;;;;4998788;28;20432;-83
2021/11/08 13:26:29;;;;;;;8.43;3.93;;;9.80;97.30;;;;;;5015545;28;20428;-82
2021/11/08 13:28:54;;;;;;;15.53;3.43;;;9.80;97.30;;;;;;5016069;28;20423;-84
2021/11/08 13:31:20;;;;;;;7.80;2.70;;;9.80;97.30;;;;;;5014397;28;20464;-83
2021/11/08 13:33:49;;;;;;;13.67;3.10;;;9.80;97.30;;;;;;5015753;28;20543;-82
2021/11/08 13:36:15;;;;;;;9.30;3.10;;;9.70;97.30;;;;;;5015638;28;20656;-82
2021/11/08 13:38:44;;;;;;;13.57;2.87;;;9.80;97.30;;;;;;4998303;28;20420;-83
2021/11/08 13:41:16;;;;;;;4.53;2.50;;;9.80;97.30;;;;;;5014202;28;20795;-83
2021/11/08 13:43:48;;;;;;;8.97;2.80;;;9.80;97.30;;;;;;5015974;28;20412;-84
2021/11/08 13:46:26;;;;;;;8.60;2.80;;;9.80;97.30;;;;;;5015353;28;20467;-84
2021/11/08 13:48:54;;;;;;;7.40;2.60;;;9.80;97.30;;;;;;5015764;28;20424;-84
2021/11/08 13:51:27;;;;;;;5.80;2.80;;;9.80;97.30;;;;;;5016177;28;20490;-84
2021/11/08 13:54:01;;;;;;;7.00;2.80;;;9.70;97.30;;;;;;5014564;28;20859;-84
2021/11/08 13:56:37;;;;;;;8.53;3.20;;;9.70;97.30;;;;;;5014556;28;20488;-84
2021/11/08 13:59:06;;;;;;;10.97;2.70;;;9.70;97.30;;;;;;5013631;28;20908;-84
2021/11/08 14:01:36;;;;;;;10.37;2.90;;;9.70;97.30;;;;;;5014197;28;20427;-83
2021/11/08 14:04:03;;;;;;;18.13;3.20;;;9.70;97.30;;;;;;5014939;28;20416;-84
2021/11/08 14:06:37;;;;;;;7.97;3.17;;;9.70;97.30;;;;;;5014113;28;20783;-83
2021/11/08 14:09:11;;;;;;;8.30;2.93;;;9.70;97.30;;;;;;5014940;28;20665;-84
2021/11/08 14:11:42;;;;;;;8.50;3.60;;;9.70;97.30;;;;;;5014839;28;20463;-85
2021/11/08 14:14:18;;;;;;;10.60;4.33;;;9.70;97.30;;;;;;5014247;28;20416;-84
2021/11/08 14:16:49;;;;;;;8.30;3.20;;;9.60;97.30;;;;;;5015765;28;20416;-84
2021/11/08 14:19:16;;;;;;;16.40;3.73;;;9.60;97.30;;;;;;5013552;28;20471;-84
2021/11/08 14:21:44;;;;;;;23.07;4.10;;;9.60;97.30;;;;;;5014334;28;20462;-84
2021/11/08 14:24:13;;;;;;;9.40;3.60;;;9.60;97.30;;;;;;5012664;28;20416;-84
2021/11/08 14:26:45;;;;;;;13.40;3.83;;;9.60;97.30;;;;;;5013811;28;20431;-84
2021/11/08 14:29:12;;;;;;;17.20;4.37;;;9.60;97.30;;;;;;5016063;28;20463;-84
2021/11/08 14:31:38;;;;;;;13.33;4.33;;;9.60;97.30;;;;;;5015482;28;20480;-84
2021/11/08 14:34:07;;;;;;;5.73;3.00;;;9.50;97.30;;;;;;5014076;28;20537;-84
2021/11/08 14:36:42;;;;;;;5.77;3.83;;;9.50;97.30;;;;;;5015460;28;20193;-84
2021/11/08 14:39:13;;;;;;;11.97;3.70;;;9.50;97.30;;;;;;5014188;28;20447;-84
2021/11/08 14:41:51;;;;;;;9.13;3.60;;;9.50;97.30;;;;;;5012739;28;20507;-84
2021/11/08 14:44:17;;;;;;;9.80;3.20;;;9.50;97.30;;;;;;5030850;28;20499;-84